createdAt,value
2023-05-07T00:04:23.976Z,100.00
2023-05-07T00:09:27.901Z,100.00
2023-05-07T00:14:32.139Z,100.00
2023-05-07T00:19:36.221Z,100.00
2023-05-07T00:24:39.959Z,100.00
2023-05-07T00:29:43.831Z,100.00
2023-05-07T00:34:47.517Z,100.00
2023-05-07T00:39:51.379Z,100.00
2023-05-07T00:44:55.093Z,100.00
2023-05-07T00:49:59.393Z,100.00
2023-05-07T00:55:06.622Z,100.00
2023-05-07T01:00:11.861Z,100.00
2023-05-07T01:05:18.051Z,100.00
2023-05-07T01:10:22.753Z,100.00
2023-05-07T01:15:26.948Z,100.00
2023-05-07T01:20:31.938Z,100.00
2023-05-07T01:25:36.060Z,100.00
2023-05-07T01:30:42.655Z,100.00
2023-05-07T01:35:48.655Z,100.00
2023-05-07T01:40:52.784Z,100.00
2023-05-07T01:45:57.614Z,100.00
2023-05-07T01:51:02.094Z,100.00
2023-05-07T01:56:06.793Z,100.00
2023-05-07T02:01:11.622Z,100.00
2023-05-07T02:06:15.642Z,100.00
2023-05-07T02:11:19.870Z,100.00
2023-05-07T02:16:25.162Z,100.00
2023-05-07T02:21:31.135Z,100.00
2023-05-07T02:26:35.724Z,100.00
2023-05-07T02:31:39.634Z,100.00
2023-05-07T02:36:43.588Z,100.00
2023-05-07T02:41:49.796Z,100.00
2023-05-07T02:46:53.596Z,100.00
2023-05-07T02:51:57.529Z,100.00
2023-05-07T02:57:03.454Z,100.00
2023-05-07T03:02:07.398Z,100.00
2023-05-07T03:07:11.288Z,100.00
2023-05-07T03:12:15.023Z,100.00
2023-05-07T03:17:18.906Z,100.00
2023-05-07T03:22:23.095Z,100.00
2023-05-07T03:27:27.002Z,100.00
2023-05-07T03:32:31.283Z,100.00
2023-05-07T03:37:36.436Z,100.00
2023-05-07T03:42:40.440Z,100.00
2023-05-07T03:47:44.435Z,100.00
2023-05-07T03:52:49.791Z,100.00
2023-05-07T03:57:55.270Z,100.00
2023-05-07T04:02:59.344Z,100.00
2023-05-07T04:08:06.815Z,100.00
2023-05-07T04:13:16.919Z,100.00
2023-05-07T04:18:21.532Z,100.00
2023-05-07T04:23:27.030Z,100.00
2023-05-07T04:28:34.105Z,100.00
2023-05-07T04:33:38.441Z,100.00
2023-05-07T04:38:43.912Z,100.00
2023-05-07T04:43:47.746Z,100.00
2023-05-07T04:48:52.458Z,100.00
2023-05-07T04:53:56.354Z,100.00
2023-05-07T04:59:00.672Z,100.00
2023-05-07T05:04:04.936Z,100.00
2023-05-07T05:09:08.952Z,100.00
2023-05-07T05:14:13.448Z,100.00
2023-05-07T05:19:18.272Z,100.00
2023-05-07T05:24:22.338Z,100.00
2023-05-07T05:29:26.690Z,100.00
2023-05-07T05:34:30.484Z,100.00
2023-05-07T05:39:35.068Z,100.00
2023-05-07T05:44:39.229Z,100.00
2023-05-07T05:49:44.603Z,100.00
2023-05-07T05:54:48.997Z,100.00
2023-05-07T05:59:53.699Z,100.00
2023-05-07T06:04:57.590Z,100.00
2023-05-07T06:10:02.281Z,100.00
2023-05-07T06:15:08.725Z,100.00
2023-05-07T06:20:13.180Z,100.00
2023-05-07T06:25:17.531Z,100.00
2023-05-07T06:30:21.574Z,100.00
2023-05-07T06:35:25.421Z,100.00
2023-05-07T06:40:29.330Z,100.00
2023-05-07T06:45:35.635Z,100.00
2023-05-07T06:50:39.939Z,100.00
2023-05-07T06:55:43.820Z,99.94
2023-05-07T07:00:48.369Z,99.60
2023-05-07T07:05:56.157Z,99.98
2023-05-07T07:11:01.827Z,99.77
2023-05-07T07:16:06.454Z,99.29
2023-05-07T07:21:11.040Z,99.72
2023-05-07T07:26:15.154Z,99.43
2023-05-07T07:31:20.180Z,98.37
2023-05-07T07:36:29.436Z,98.56
2023-05-07T07:41:43.787Z,98.97
2023-05-07T07:46:48.407Z,98.99
2023-05-07T07:51:52.499Z,98.82
2023-05-07T07:56:56.502Z,98.86
2023-05-07T08:02:00.810Z,98.47
2023-05-07T08:07:06.127Z,98.99
2023-05-07T08:12:11.655Z,98.81
2023-05-07T08:17:17.382Z,98.53
2023-05-07T08:22:23.330Z,98.20
2023-05-07T08:27:27.732Z,98.65
2023-05-07T08:32:31.680Z,98.10
2023-05-07T08:37:35.656Z,97.72
2023-05-07T08:42:41.718Z,97.88
2023-05-07T08:47:49.308Z,98.46
2023-05-07T08:52:53.528Z,98.89
2023-05-07T08:57:57.906Z,98.46
2023-05-07T09:03:03.106Z,97.23
2023-05-07T09:08:09.975Z,96.75
2023-05-07T09:13:15.987Z,96.58
2023-05-07T09:18:20.653Z,96.79
2023-05-07T09:23:25.985Z,95.84
2023-05-07T09:28:30.844Z,96.55
2023-05-07T09:33:34.898Z,96.80
2023-05-07T09:38:40.915Z,96.11
2023-05-07T09:43:45.281Z,96.18
2023-05-07T09:48:51.279Z,95.45
2023-05-07T09:53:56.224Z,94.63
2023-05-07T09:59:05.221Z,93.24
2023-05-07T10:04:10.123Z,92.85
2023-05-07T10:09:15.468Z,93.23
2023-05-07T10:14:21.400Z,92.52
2023-05-07T10:19:26.324Z,92.45
2023-05-07T10:24:35.287Z,91.40
2023-05-07T10:30:17.034Z,90.44
2023-05-07T10:35:26.553Z,89.70
2023-05-07T10:40:32.281Z,89.71
2023-05-07T10:45:37.118Z,89.65
2023-05-07T10:50:47.524Z,89.03
2023-05-07T10:55:54.012Z,88.37
2023-05-07T11:01:04.742Z,88.26
2023-05-07T11:06:16.748Z,89.32
2023-05-07T11:11:54.156Z,87.85
2023-05-07T11:17:08.433Z,88.34
2023-05-07T11:22:38.473Z,86.98
2023-05-07T11:28:08.111Z,86.78
2023-05-07T11:33:12.482Z,86.58
2023-05-07T11:38:17.529Z,86.30
2023-05-07T11:43:21.690Z,86.10
2023-05-07T11:48:25.806Z,86.39
2023-05-07T11:53:37.822Z,86.47
2023-05-07T11:58:42.776Z,86.24
2023-05-07T12:03:47.672Z,84.83
2023-05-07T12:08:51.636Z,85.14
2023-05-07T12:13:59.827Z,85.60
2023-05-07T12:19:03.804Z,84.74
2023-05-07T12:24:07.757Z,84.02
2023-05-07T12:29:11.809Z,83.65
2023-05-07T12:34:15.774Z,83.68
2023-05-07T12:39:19.770Z,84.32
2023-05-07T12:44:25.324Z,84.60
2023-05-07T12:49:29.401Z,83.03
2023-05-07T12:54:39.382Z,83.64
2023-05-07T12:59:43.949Z,84.09
2023-05-07T13:04:49.350Z,83.09
2023-05-07T13:09:53.207Z,82.81
2023-05-07T13:14:57.211Z,82.55
2023-05-07T13:20:01.148Z,82.24
2023-05-07T13:25:05.216Z,82.83
2023-05-07T13:30:09.640Z,83.08
2023-05-07T13:35:13.544Z,82.64
2023-05-07T13:40:17.772Z,81.74
2023-05-07T13:45:22.392Z,81.40
2023-05-07T13:50:28.336Z,81.02
2023-05-07T13:55:32.199Z,80.78
2023-05-07T14:00:36.159Z,80.68
2023-05-07T14:05:40.057Z,80.89
2023-05-07T14:10:44.135Z,81.17
2023-05-07T14:15:49.974Z,81.47
2023-05-07T14:20:54.028Z,81.44
2023-05-07T14:25:58.710Z,81.66
2023-05-07T14:31:02.820Z,81.38
2023-05-07T14:36:06.852Z,81.34
2023-05-07T14:41:10.709Z,81.15
2023-05-07T14:46:14.604Z,80.34
2023-05-07T14:51:18.881Z,80.29
2023-05-07T14:56:22.973Z,80.78
2023-05-07T15:01:28.114Z,80.90
2023-05-07T15:06:32.771Z,80.31
2023-05-07T15:11:36.675Z,80.26
2023-05-07T15:16:40.912Z,80.78
2023-05-07T15:21:45.009Z,80.40
2023-05-07T15:26:49.226Z,80.55
2023-05-07T15:31:53.459Z,80.64
2023-05-07T15:36:58.575Z,80.80
2023-05-07T15:42:02.668Z,80.71
2023-05-07T15:47:06.529Z,80.69
2023-05-07T15:52:15.024Z,80.92
2023-05-07T15:57:18.813Z,80.93
2023-05-07T16:02:22.586Z,80.71
2023-05-07T16:07:26.737Z,80.90
2023-05-07T16:12:30.693Z,80.95
2023-05-07T16:17:34.459Z,80.92
2023-05-07T16:22:38.416Z,80.94
2023-05-07T16:27:42.311Z,80.94
2023-05-07T16:32:46.281Z,81.26
2023-05-07T16:37:50.115Z,81.06
2023-05-07T16:42:55.546Z,81.22
2023-05-07T16:47:59.743Z,81.38
2023-05-07T16:53:06.089Z,80.82
2023-05-07T16:58:11.971Z,80.70
2023-05-07T17:03:15.762Z,80.65
2023-05-07T17:08:19.826Z,80.59
2023-05-07T17:13:23.823Z,80.56
2023-05-07T17:18:27.904Z,80.53
2023-05-07T17:23:34.424Z,80.42
2023-05-07T17:28:39.954Z,80.09
2023-05-07T17:33:43.637Z,79.77
2023-05-07T17:38:47.377Z,79.90
2023-05-07T17:43:51.399Z,80.04
2023-05-07T17:48:57.254Z,80.29
2023-05-07T17:54:02.009Z,80.42
2023-05-07T17:59:06.480Z,80.46
2023-05-07T18:04:11.957Z,80.68
2023-05-07T18:09:15.632Z,80.90
2023-05-07T18:14:25.618Z,81.02
2023-05-07T18:19:31.212Z,81.25
2023-05-07T18:24:36.554Z,81.36
2023-05-07T18:29:41.093Z,81.69
2023-05-07T18:34:46.700Z,81.86
2023-05-07T18:39:52.809Z,81.80
2023-05-07T18:45:02.226Z,82.18
2023-05-07T18:50:15.462Z,82.30
2023-05-07T18:55:23.034Z,82.38
2023-05-07T19:00:27.766Z,82.70
2023-05-07T19:05:33.513Z,82.66
2023-05-07T19:10:40.997Z,82.71
2023-05-07T19:15:46.317Z,82.62
2023-05-07T19:20:54.696Z,82.65
2023-05-07T19:26:00.782Z,82.86
2023-05-07T19:31:06.756Z,82.96
2023-05-07T19:36:11.816Z,82.96
2023-05-07T19:41:23.682Z,83.04
2023-05-07T19:46:27.747Z,83.22
2023-05-07T19:51:33.582Z,82.62
2023-05-07T19:56:38.826Z,82.32
2023-05-07T20:01:44.783Z,82.17
2023-05-07T20:06:53.621Z,81.91
2023-05-07T20:11:57.648Z,82.08
2023-05-07T20:17:01.924Z,82.33
2023-05-07T20:22:08.659Z,82.32
2023-05-07T20:27:12.619Z,82.55
2023-05-07T20:32:18.980Z,82.72
2023-05-07T20:37:31.203Z,82.51
2023-05-07T20:42:35.896Z,82.71
2023-05-07T20:47:39.693Z,82.42
2023-05-07T20:52:45.559Z,82.12
2023-05-07T20:57:50.923Z,81.57
2023-05-07T21:02:56.240Z,81.34
2023-05-07T21:08:00.092Z,81.08
2023-05-07T21:13:03.810Z,81.16
2023-05-07T21:18:10.295Z,81.42
2023-05-07T21:23:15.761Z,81.53
2023-05-07T21:28:19.617Z,81.85
2023-05-07T21:33:23.544Z,81.86
2023-05-07T21:38:27.363Z,82.09
2023-05-07T21:43:31.806Z,82.21
2023-05-07T21:48:36.071Z,82.52
2023-05-07T21:53:39.991Z,82.93
2023-05-07T21:58:43.801Z,83.11
2023-05-07T22:03:47.758Z,83.08
2023-05-07T22:08:52.342Z,83.48
2023-05-07T22:13:56.054Z,83.75
2023-05-07T22:19:00.122Z,84.18
2023-05-07T22:24:07.899Z,84.55
2023-05-07T22:29:12.517Z,85.04
2023-05-07T22:34:16.573Z,85.29
2023-05-07T22:39:20.498Z,86.40
2023-05-07T22:44:24.523Z,86.85
2023-05-07T22:49:28.846Z,87.11
2023-05-07T22:54:34.757Z,87.35
2023-05-07T22:59:39.796Z,87.69
2023-05-07T23:04:44.290Z,88.05
2023-05-07T23:09:48.684Z,87.96
2023-05-07T23:14:53.025Z,88.42
2023-05-07T23:19:57.870Z,88.80
2023-05-07T23:25:04.044Z,89.02
2023-05-07T23:30:09.293Z,89.25
2023-05-07T23:35:14.558Z,89.28
2023-05-07T23:40:20.437Z,89.63
2023-05-07T23:45:25.616Z,89.80
2023-05-07T23:50:29.870Z,90.21
2023-05-07T23:55:34.285Z,90.71
